General Aviation Weather

Text Reports

Enter one or more of the following location identifiers separated by a space:

Zip Code, Four-Character ICAO or Three-Character IATA airport codes.

METAR - Aviation Routine Weather Report
KIKW - Midland, Michigan
Updated at 5:32 AM GMT on December 09, 2016 (12:32 AM EST):
METAR KIKW 090532Z AUTO 27005KT 10SM SCT035 BKN042 BKN070 M03/M05 A3022 RMK AO2 T10301055
TAF - Terminal Area Forecast
KIKW - Midland, Michigan
Updated at 5:32 AM GMT on December 09, 2016 (12:32 AM EST):
No TAF is currently available for this location.
Decoded:
No decoded TAF is available.
PIREP - Pilot Weather Report
KIKW - Midland, Michigan
Updated at 5:32 AM GMT on December 09, 2016 (12:32 AM EST):
No PIREP is currently available for this location.
AIRMET - Airmens Meteorological Information
KIKW - Midland, Michigan
Updated at 5:32 AM GMT on December 09, 2016 (12:32 AM EST):
No AIRMET is currently available for this location.
SIGMET - Significant Meteorological Information
KIKW - Midland, Michigan
Updated at 5:32 AM GMT on December 09, 2016 (12:32 AM EST):
No SIGMET is currently available for this location.
NOTAM - Notice to Airmen
KIKW - Midland, Michigan
Updated at 5:32 AM GMT on December 09, 2016 (12:32 AM EST):
No NOTAM is currently available for this location.
Forecast Area
KIKW - Midland, Michigan
Updated at 5:32 AM GMT on December 09, 2016 (12:32 AM EST):
No NOTAM is currently available for this location.
Aviation Weather Maps